createdAt,value
2022-11-29T00:02:02.703Z,40.95
2022-11-29T00:04:30.332Z,41.29
2022-11-29T00:06:57.667Z,40.40
2022-11-29T00:09:24.983Z,41.07
2022-11-29T00:12:10.827Z,40.80
2022-11-29T00:14:38.296Z,41.81
2022-11-29T00:17:06.011Z,41.86
2022-11-29T00:19:35.676Z,41.00
2022-11-29T00:22:04.059Z,40.89
2022-11-29T00:24:32.491Z,40.73
2022-11-29T00:27:00.489Z,41.62
2022-11-29T00:32:13.532Z,42.09
2022-11-29T00:34:41.069Z,41.84
2022-11-29T00:37:08.867Z,41.17
2022-11-29T00:39:36.929Z,40.68
2022-11-29T00:42:05.707Z,41.12
2022-11-29T00:44:33.359Z,41.01
2022-11-29T00:47:00.859Z,40.96
2022-11-29T00:49:28.264Z,41.26
2022-11-29T00:51:55.877Z,41.53
2022-11-29T00:54:23.333Z,40.74
2022-11-29T00:56:50.745Z,41.02
2022-11-29T00:59:18.201Z,41.76
2022-11-29T01:01:45.655Z,40.76
2022-11-29T01:04:13.137Z,41.26
2022-11-29T01:06:40.782Z,41.29
2022-11-29T01:09:08.265Z,41.12
2022-11-29T01:11:35.870Z,41.86
2022-11-29T01:14:04.275Z,41.55
2022-11-29T01:16:32.804Z,42.15
2022-11-29T01:19:00.895Z,41.95
2022-11-29T01:21:28.457Z,40.99
2022-11-29T01:23:56.349Z,40.67
2022-11-29T01:26:27.636Z,41.56
2022-11-29T01:28:56.736Z,41.60
2022-11-29T01:31:27.757Z,41.93
2022-11-29T01:33:57.282Z,41.51
2022-11-29T01:36:25.317Z,41.72
2022-11-29T01:38:52.948Z,41.71
2022-11-29T01:41:23.856Z,41.02
2022-11-29T01:43:55.919Z,42.79
2022-11-29T01:46:24.340Z,42.08
2022-11-29T01:48:55.313Z,42.43
2022-11-29T01:51:23.007Z,42.33
2022-11-29T01:53:50.556Z,42.25
2022-11-29T01:56:18.144Z,42.36
2022-11-29T01:58:45.766Z,42.55
2022-11-29T02:01:14.239Z,42.98
2022-11-29T02:03:41.987Z,42.28
2022-11-29T02:06:09.643Z,42.50
2022-11-29T02:08:40.691Z,42.05
2022-11-29T02:11:36.746Z,42.08
2022-11-29T02:14:56.810Z,42.68
2022-11-29T02:17:41.913Z,42.43
2022-11-29T02:20:27.763Z,42.33
2022-11-29T02:23:04.104Z,42.37
2022-11-29T02:25:46.580Z,42.27
2022-11-29T02:28:27.247Z,42.33
2022-11-29T02:31:02.946Z,41.67
2022-11-29T02:33:39.244Z,41.97
2022-11-29T02:36:30.036Z,41.99
2022-11-29T02:39:52.296Z,42.17
2022-11-29T02:42:25.501Z,41.59
2022-11-29T02:45:19.740Z,41.71
2022-11-29T02:48:05.224Z,41.19
2022-11-29T02:50:59.724Z,41.25
2022-11-29T02:53:35.412Z,40.99
2022-11-29T02:56:40.405Z,41.38
2022-11-29T02:59:26.352Z,41.01
2022-11-29T03:02:27.254Z,40.68
2022-11-29T03:05:25.117Z,41.07
2022-11-29T03:08:00.955Z,40.96
2022-11-29T03:10:57.477Z,40.86
2022-11-29T03:13:46.583Z,40.65
2022-11-29T03:16:43.647Z,40.69
2022-11-29T03:19:23.461Z,40.71
2022-11-29T03:22:18.871Z,40.67
2022-11-29T03:24:55.180Z,40.70
2022-11-29T03:27:31.050Z,40.39
2022-11-29T03:30:05.685Z,40.29
2022-11-29T03:32:45.632Z,40.59
2022-11-29T03:35:22.628Z,40.59
2022-11-29T03:38:16.849Z,40.49
2022-11-29T03:41:15.010Z,40.56
2022-11-29T03:44:03.345Z,40.19
2022-11-29T03:46:38.236Z,40.28
2022-11-29T03:49:28.638Z,40.35
2022-11-29T03:51:58.941Z,40.19
2022-11-29T03:54:35.183Z,40.32
2022-11-29T03:57:02.973Z,40.34
2022-11-29T03:59:32.983Z,40.10
2022-11-29T04:02:41.761Z,40.02
2022-11-29T04:05:29.436Z,40.13
2022-11-29T04:08:11.795Z,40.29
2022-11-29T04:11:08.307Z,40.09
2022-11-29T04:14:04.471Z,40.28
2022-11-29T04:17:02.979Z,39.78
2022-11-29T04:19:48.525Z,39.73
2022-11-29T04:22:32.714Z,39.72
2022-11-29T04:25:15.572Z,39.91
2022-11-29T04:28:09.175Z,40.25
2022-11-29T04:31:14.735Z,39.67
2022-11-29T04:34:17.966Z,39.92
2022-11-29T04:37:09.064Z,39.69
2022-11-29T04:40:01.081Z,39.78
2022-11-29T04:42:55.921Z,39.74
2022-11-29T04:46:01.376Z,39.48
2022-11-29T04:49:05.848Z,39.59
2022-11-29T04:52:04.188Z,39.75
2022-11-29T04:55:09.304Z,39.46
2022-11-29T04:58:04.272Z,39.73
2022-11-29T05:00:44.540Z,39.21
2022-11-29T05:03:20.376Z,39.82
2022-11-29T05:05:53.749Z,39.50
2022-11-29T05:08:30.613Z,39.11
2022-11-29T05:11:01.061Z,39.27
2022-11-29T05:13:28.516Z,39.23
2022-11-29T05:16:04.646Z,39.51
2022-11-29T05:19:02.975Z,39.48
2022-11-29T05:21:30.399Z,39.80
2022-11-29T05:24:19.221Z,39.91
2022-11-29T05:27:33.207Z,40.10
2022-11-29T05:30:11.481Z,39.57
2022-11-29T05:32:57.815Z,39.26
2022-11-29T05:35:51.526Z,37.17
2022-11-29T05:38:56.270Z,39.41
2022-11-29T05:41:32.474Z,39.44
2022-11-29T05:44:12.089Z,39.43
2022-11-29T05:46:39.549Z,39.54
2022-11-29T05:49:21.093Z,40.09
2022-11-29T05:52:14.492Z,39.43
2022-11-29T05:54:52.340Z,39.80
2022-11-29T05:58:01.935Z,40.00
2022-11-29T06:00:40.011Z,39.79
2022-11-29T06:03:18.345Z,39.58
2022-11-29T06:05:57.495Z,39.56
2022-11-29T06:08:24.841Z,39.48
2022-11-29T06:11:00.717Z,39.53
2022-11-29T06:13:51.087Z,39.44
2022-11-29T06:16:33.994Z,39.84
2022-11-29T06:19:20.017Z,39.83
2022-11-29T06:22:02.635Z,39.40
2022-11-29T06:24:51.819Z,39.87
2022-11-29T06:28:04.853Z,39.65
2022-11-29T06:30:50.781Z,40.07
2022-11-29T06:33:28.075Z,40.43
2022-11-29T06:36:16.625Z,40.03
2022-11-29T06:38:44.253Z,39.95
2022-11-29T06:41:19.834Z,39.77
2022-11-29T06:43:47.820Z,39.93
2022-11-29T06:46:36.892Z,39.93
2022-11-29T06:49:14.281Z,40.25
2022-11-29T06:52:00.752Z,40.47
2022-11-29T06:54:34.253Z,40.14
2022-11-29T06:57:20.423Z,40.26
2022-11-29T07:00:00.053Z,40.22
2022-11-29T07:02:59.533Z,40.26
2022-11-29T07:05:35.131Z,40.41
2022-11-29T07:08:06.373Z,39.77
2022-11-29T07:10:36.814Z,40.10
2022-11-29T07:13:04.863Z,40.13
2022-11-29T07:15:32.629Z,40.14
2022-11-29T07:18:28.598Z,40.30
2022-11-29T07:21:13.473Z,40.19
2022-11-29T07:24:00.086Z,40.21
2022-11-29T07:26:27.449Z,40.27
2022-11-29T07:29:00.887Z,40.17
2022-11-29T07:31:59.388Z,40.26
2022-11-29T07:34:54.665Z,39.80
2022-11-29T07:37:44.786Z,39.98
2022-11-29T07:40:37.418Z,40.34
2022-11-29T07:43:34.894Z,40.10
2022-11-29T07:46:02.383Z,40.24
2022-11-29T07:48:29.845Z,40.13
2022-11-29T07:50:57.563Z,40.04
2022-11-29T07:53:25.156Z,40.11
2022-11-29T07:55:53.212Z,39.78
2022-11-29T07:58:21.087Z,40.42
2022-11-29T08:00:48.665Z,40.40
2022-11-29T08:03:16.259Z,40.35
2022-11-29T08:05:46.461Z,39.81
2022-11-29T08:08:15.104Z,40.03
2022-11-29T08:10:42.563Z,39.85
2022-11-29T08:13:10.066Z,40.02
2022-11-29T08:15:43.193Z,39.81
2022-11-29T08:18:10.665Z,39.77
2022-11-29T08:20:39.260Z,40.25
2022-11-29T08:23:06.805Z,40.19
2022-11-29T08:25:34.456Z,39.49
2022-11-29T08:28:03.002Z,39.68
2022-11-29T08:30:30.427Z,39.87
2022-11-29T08:32:58.368Z,39.85
2022-11-29T08:35:26.069Z,39.54
2022-11-29T08:37:54.708Z,39.77
2022-11-29T08:40:23.082Z,40.33
2022-11-29T08:42:50.684Z,40.18
2022-11-29T08:45:18.274Z,39.84
2022-11-29T08:47:45.799Z,39.96
2022-11-29T08:50:18.201Z,40.01
2022-11-29T08:53:06.539Z,39.96
2022-11-29T08:55:40.661Z,39.86
2022-11-29T08:58:13.897Z,40.18
2022-11-29T09:00:44.230Z,40.37
2022-11-29T09:03:30.269Z,39.76
2022-11-29T09:05:57.892Z,40.34
2022-11-29T09:08:25.507Z,40.11
2022-11-29T09:10:53.446Z,40.09
2022-11-29T09:13:20.892Z,39.88
2022-11-29T09:15:48.499Z,39.97
2022-11-29T09:18:16.052Z,40.18
2022-11-29T09:20:44.822Z,40.04
2022-11-29T09:23:13.237Z,39.67
2022-11-29T09:25:40.898Z,39.75
2022-11-29T09:28:08.645Z,40.05
2022-11-29T09:30:38.022Z,39.62
2022-11-29T09:33:05.634Z,39.78
2022-11-29T09:35:34.691Z,40.07
2022-11-29T09:38:02.133Z,39.67
2022-11-29T09:40:40.112Z,39.88
2022-11-29T09:43:10.514Z,39.13
2022-11-29T09:45:43.144Z,39.17
2022-11-29T09:48:26.774Z,39.55
2022-11-29T09:51:16.995Z,39.59
2022-11-29T09:54:03.152Z,39.60
2022-11-29T09:56:47.205Z,38.83
2022-11-29T09:59:33.658Z,38.90
2022-11-29T10:02:22.840Z,39.16
2022-11-29T10:04:59.155Z,39.11
2022-11-29T10:07:35.256Z,39.59
2022-11-29T10:10:04.936Z,38.87
2022-11-29T10:13:15.747Z,39.29
2022-11-29T10:15:50.457Z,39.27
2022-11-29T10:18:29.370Z,39.44
2022-11-29T10:21:03.572Z,39.57
2022-11-29T10:23:39.028Z,39.22
2022-11-29T10:26:08.132Z,39.89
2022-11-29T10:28:37.163Z,39.43
2022-11-29T10:31:17.038Z,39.72
2022-11-29T10:33:45.247Z,40.00
2022-11-29T10:36:25.888Z,39.38
2022-11-29T10:38:59.298Z,39.04
2022-11-29T10:41:27.117Z,39.75
2022-11-29T10:43:58.561Z,39.52
2022-11-29T10:46:34.252Z,39.68
2022-11-29T10:49:11.795Z,39.48
2022-11-29T10:51:39.310Z,39.47
2022-11-29T10:54:41.686Z,39.96
2022-11-29T10:57:14.911Z,40.07
2022-11-29T10:59:59.333Z,39.43
2022-11-29T11:02:27.917Z,38.73
2022-11-29T11:04:56.365Z,39.23
2022-11-29T11:07:36.096Z,38.92
2022-11-29T11:10:17.414Z,38.97
2022-11-29T11:13:01.489Z,38.52
2022-11-29T11:15:31.115Z,39.08
2022-11-29T11:18:05.013Z,38.75
2022-11-29T11:20:35.420Z,38.75
2022-11-29T11:23:07.956Z,38.92
2022-11-29T11:25:39.177Z,38.39
2022-11-29T11:28:23.145Z,38.48
2022-11-29T11:31:11.395Z,38.24
2022-11-29T11:33:41.789Z,38.14
2022-11-29T11:36:12.434Z,38.13
2022-11-29T11:39:08.989Z,38.49
2022-11-29T11:41:59.601Z,38.30
2022-11-29T11:44:58.423Z,38.67
2022-11-29T11:47:29.067Z,38.72
2022-11-29T11:50:06.852Z,38.51
2022-11-29T11:52:42.042Z,38.66
2022-11-29T11:55:21.441Z,38.37
2022-11-29T11:58:09.339Z,38.71
2022-11-29T12:01:04.409Z,38.48
2022-11-29T12:03:56.796Z,39.26
2022-11-29T12:06:29.978Z,38.93
2022-11-29T12:09:16.491Z,38.81
2022-11-29T12:11:51.366Z,39.69
2022-11-29T12:14:28.589Z,39.60
2022-11-29T12:17:05.194Z,40.01
2022-11-29T12:19:41.857Z,40.04
2022-11-29T12:22:15.368Z,40.92
2022-11-29T12:24:53.040Z,40.56
2022-11-29T12:27:20.582Z,40.61
2022-11-29T12:29:48.070Z,41.37
2022-11-29T12:32:42.835Z,40.77
2022-11-29T12:35:35.116Z,41.04
2022-11-29T12:38:08.804Z,41.73
2022-11-29T12:40:59.463Z,41.46
2022-11-29T12:43:45.340Z,41.17
2022-11-29T12:46:29.311Z,41.74
2022-11-29T12:49:02.818Z,42.04
2022-11-29T12:51:57.912Z,41.93
2022-11-29T12:54:28.212Z,42.47
2022-11-29T12:57:23.747Z,42.65
2022-11-29T13:00:17.772Z,43.13
2022-11-29T13:02:53.474Z,43.58
2022-11-29T13:05:33.944Z,44.47
2022-11-29T13:08:04.457Z,45.45
2022-11-29T13:10:35.842Z,44.27
2022-11-29T13:13:16.669Z,43.71
2022-11-29T13:15:44.106Z,43.33
2022-11-29T13:18:24.193Z,44.07
2022-11-29T13:20:56.377Z,44.13
2022-11-29T13:26:38.623Z,43.29
2022-11-29T13:29:07.757Z,44.38
2022-11-29T13:31:36.713Z,43.59
2022-11-29T13:34:13.245Z,43.41
2022-11-29T13:36:43.575Z,42.90
2022-11-29T13:39:16.716Z,43.55
2022-11-29T13:42:10.468Z,43.09
2022-11-29T13:44:51.941Z,42.68
2022-11-29T13:47:20.123Z,42.46
2022-11-29T13:50:07.433Z,42.51
2022-11-29T13:52:40.908Z,42.36
2022-11-29T13:55:12.895Z,42.48
2022-11-29T13:58:15.025Z,42.58
2022-11-29T14:00:51.217Z,42.42
2022-11-29T14:03:19.095Z,42.45
2022-11-29T14:05:49.658Z,42.33
2022-11-29T14:08:25.065Z,41.96
2022-11-29T14:10:55.681Z,42.01
2022-11-29T14:13:31.267Z,41.63
2022-11-29T14:16:01.979Z,41.49
2022-11-29T14:18:38.281Z,41.71
2022-11-29T14:21:05.861Z,41.40
2022-11-29T14:23:41.372Z,41.47
2022-11-29T14:26:08.852Z,41.55
2022-11-29T14:28:39.223Z,41.45
2022-11-29T14:31:10.676Z,41.12
2022-11-29T14:33:47.235Z,41.47
2022-11-29T14:36:14.589Z,41.21
2022-11-29T14:38:55.741Z,41.42
2022-11-29T14:41:56.793Z,41.60
2022-11-29T14:44:28.253Z,41.16
2022-11-29T14:47:24.467Z,41.17
2022-11-29T14:49:54.205Z,41.46
2022-11-29T14:52:32.095Z,41.45
2022-11-29T14:55:06.107Z,41.11
2022-11-29T14:58:01.172Z,41.17
2022-11-29T15:00:34.826Z,40.90
2022-11-29T15:03:17.581Z,41.12
2022-11-29T15:05:46.683Z,41.20
2022-11-29T15:08:19.217Z,40.75
2022-11-29T15:10:54.143Z,41.04
2022-11-29T15:13:35.994Z,40.61
2022-11-29T15:16:24.666Z,40.28
2022-11-29T15:18:59.252Z,40.31
2022-11-29T15:21:29.664Z,40.50
2022-11-29T15:24:08.831Z,40.64
2022-11-29T15:26:36.407Z,40.39
2022-11-29T15:29:19.571Z,40.35
2022-11-29T15:32:04.864Z,40.35
2022-11-29T15:34:39.713Z,40.06
2022-11-29T15:37:12.736Z,40.08
2022-11-29T15:39:40.289Z,40.27
2022-11-29T15:42:12.988Z,40.37
2022-11-29T15:44:48.057Z,40.36
2022-11-29T15:47:24.540Z,40.35
2022-11-29T15:49:53.819Z,40.07
2022-11-29T15:52:27.354Z,40.39
2022-11-29T15:55:00.561Z,40.30
2022-11-29T15:57:36.149Z,40.43
2022-11-29T16:00:08.926Z,40.31
2022-11-29T16:02:40.386Z,40.22
2022-11-29T16:05:37.251Z,39.95
2022-11-29T16:08:12.359Z,40.09
2022-11-29T16:10:47.389Z,40.39
2022-11-29T16:13:35.371Z,40.31
2022-11-29T16:16:17.264Z,40.38
2022-11-29T16:18:46.781Z,40.81
2022-11-29T16:21:32.733Z,40.90
2022-11-29T16:24:12.908Z,40.95
2022-11-29T16:26:44.223Z,41.25
2022-11-29T16:29:26.969Z,41.07
2022-11-29T16:31:55.022Z,40.83
2022-11-29T16:34:27.558Z,40.82
2022-11-29T16:37:07.380Z,40.86
2022-11-29T16:39:37.957Z,40.83
2022-11-29T16:42:25.937Z,41.00
2022-11-29T16:44:56.573Z,40.76
2022-11-29T16:47:26.467Z,41.00
2022-11-29T16:50:03.233Z,40.60
2022-11-29T16:52:32.995Z,40.51
2022-11-29T16:55:00.789Z,41.01
2022-11-29T16:57:29.347Z,40.58
2022-11-29T16:59:56.763Z,41.06
2022-11-29T17:02:24.293Z,41.03
2022-11-29T17:04:51.957Z,41.30
2022-11-29T17:07:39.434Z,41.13
2022-11-29T17:10:11.902Z,40.96
2022-11-29T17:12:42.237Z,41.20
2022-11-29T17:15:14.024Z,41.36
2022-11-29T17:17:43.303Z,41.24
2022-11-29T17:20:12.728Z,41.32
2022-11-29T17:22:41.358Z,41.90
2022-11-29T17:25:09.770Z,41.20
2022-11-29T17:27:37.839Z,41.50
2022-11-29T17:30:06.703Z,41.53
2022-11-29T17:32:35.858Z,41.97
2022-11-29T17:35:03.765Z,41.21
2022-11-29T17:37:31.866Z,41.11
2022-11-29T17:39:59.576Z,42.58
2022-11-29T17:42:27.130Z,40.88
2022-11-29T17:44:54.569Z,40.72
2022-11-29T17:47:22.099Z,41.64
2022-11-29T17:49:49.525Z,41.54
2022-11-29T17:52:16.979Z,41.58
2022-11-29T17:54:44.399Z,42.68
2022-11-29T17:57:11.985Z,42.79
2022-11-29T17:59:39.490Z,43.14
2022-11-29T18:02:07.082Z,42.78
2022-11-29T18:04:34.513Z,42.75
2022-11-29T18:07:01.923Z,42.61
2022-11-29T18:09:29.588Z,42.66
2022-11-29T18:11:57.038Z,42.22
2022-11-29T18:14:28.078Z,42.56
2022-11-29T18:16:55.751Z,42.70
2022-11-29T18:19:23.816Z,42.66
2022-11-29T18:21:51.756Z,42.50
2022-11-29T18:24:19.771Z,42.80
2022-11-29T18:26:47.393Z,41.92
2022-11-29T18:29:15.208Z,40.53
2022-11-29T18:31:44.592Z,42.06
2022-11-29T18:34:13.789Z,41.91
2022-11-29T18:36:47.296Z,41.93
2022-11-29T18:39:17.628Z,41.57
2022-11-29T18:41:47.734Z,41.36
2022-11-29T18:44:17.550Z,41.48
2022-11-29T18:46:46.809Z,41.79
2022-11-29T18:49:16.503Z,42.17
2022-11-29T18:51:45.941Z,41.89
2022-11-29T18:54:16.629Z,41.64
2022-11-29T18:56:45.587Z,42.12
2022-11-29T18:59:17.040Z,41.66
2022-11-29T19:01:47.649Z,41.74
2022-11-29T19:04:20.588Z,42.47
2022-11-29T19:06:48.441Z,43.78
2022-11-29T19:09:20.996Z,43.08
2022-11-29T19:11:51.667Z,43.83
2022-11-29T19:14:21.018Z,44.06
2022-11-29T19:16:50.167Z,43.60
2022-11-29T19:19:19.124Z,43.80
2022-11-29T19:21:46.917Z,44.11
2022-11-29T19:24:15.763Z,44.27
2022-11-29T19:26:45.779Z,45.12
2022-11-29T19:29:14.365Z,44.61
2022-11-29T19:31:42.713Z,45.29
2022-11-29T19:34:10.943Z,43.98
2022-11-29T19:36:43.141Z,44.40
2022-11-29T19:39:13.398Z,44.47
2022-11-29T19:41:43.912Z,44.42
2022-11-29T19:44:11.867Z,43.90
2022-11-29T19:46:45.986Z,44.34
2022-11-29T19:49:13.616Z,44.62
2022-11-29T19:51:41.442Z,44.15
2022-11-29T19:54:10.278Z,44.10
2022-11-29T19:56:38.915Z,44.13
2022-11-29T19:59:07.611Z,44.25
2022-11-29T20:01:40.784Z,44.04
2022-11-29T20:04:10.890Z,43.52
2022-11-29T20:06:39.223Z,43.54
2022-11-29T20:09:07.160Z,43.89
2022-11-29T20:11:35.038Z,43.77
2022-11-29T20:14:04.272Z,43.34
2022-11-29T20:16:32.435Z,43.54
2022-11-29T20:18:59.987Z,43.56
2022-11-29T20:21:32.706Z,43.66
2022-11-29T20:24:03.630Z,43.17
2022-11-29T20:26:33.489Z,43.19
2022-11-29T20:29:02.190Z,43.67
2022-11-29T20:31:30.224Z,43.29
2022-11-29T20:33:57.970Z,43.24
2022-11-29T20:37:05.781Z,43.55
2022-11-29T20:39:58.276Z,42.96
2022-11-29T20:42:56.868Z,43.38
2022-11-29T20:45:25.517Z,43.45
2022-11-29T20:47:58.679Z,43.49
2022-11-29T20:50:28.940Z,43.58
2022-11-29T20:52:59.619Z,43.47
2022-11-29T20:55:27.136Z,43.28
2022-11-29T20:57:55.837Z,43.03
2022-11-29T21:00:23.886Z,42.90
2022-11-29T21:02:51.602Z,42.78
2022-11-29T21:05:19.592Z,43.54
2022-11-29T21:07:47.357Z,43.07
2022-11-29T21:10:15.566Z,43.19
2022-11-29T21:12:45.834Z,42.95
2022-11-29T21:15:14.995Z,43.08
2022-11-29T21:17:43.348Z,42.44
2022-11-29T21:20:20.891Z,42.89
2022-11-29T21:23:08.836Z,42.39
2022-11-29T21:25:58.260Z,42.25
2022-11-29T21:28:34.393Z,42.34
2022-11-29T21:31:02.208Z,42.26
2022-11-29T21:33:29.951Z,42.21
2022-11-29T21:35:58.278Z,42.37
2022-11-29T21:38:27.087Z,42.18
2022-11-29T21:40:54.681Z,42.43
2022-11-29T21:43:28.742Z,42.67
2022-11-29T21:46:09.577Z,42.69
2022-11-29T21:48:37.983Z,43.08
2022-11-29T21:51:07.229Z,42.59
2022-11-29T21:53:36.816Z,42.73
2022-11-29T21:56:06.975Z,42.93
2022-11-29T21:58:36.240Z,42.52
2022-11-29T22:01:12.458Z,42.65
2022-11-29T22:03:40.835Z,42.36
2022-11-29T22:06:10.902Z,42.48
2022-11-29T22:08:40.228Z,42.44
2022-11-29T22:11:10.740Z,42.18
2022-11-29T22:13:59.939Z,41.98
2022-11-29T22:16:28.513Z,42.26
2022-11-29T22:18:56.010Z,42.10
2022-11-29T22:21:24.543Z,42.00
2022-11-29T22:23:52.814Z,41.94
2022-11-29T22:26:22.028Z,41.89
2022-11-29T22:28:49.536Z,41.77
2022-11-29T22:31:17.125Z,41.74
2022-11-29T22:33:44.549Z,41.61
2022-11-29T22:36:13.413Z,41.58
2022-11-29T22:38:40.901Z,41.76
2022-11-29T22:41:11.125Z,41.89
2022-11-29T22:43:40.449Z,41.70
2022-11-29T22:46:10.764Z,41.51
2022-11-29T22:48:39.546Z,41.50
2022-11-29T22:51:11.661Z,41.43
2022-11-29T22:53:41.893Z,41.50
2022-11-29T22:56:10.959Z,41.64
2022-11-29T22:58:38.822Z,41.22
2022-11-29T23:01:09.549Z,41.35
2022-11-29T23:03:39.150Z,40.81
2022-11-29T23:06:11.717Z,41.16
2022-11-29T23:08:40.566Z,40.79
2022-11-29T23:11:11.127Z,40.99
2022-11-29T23:13:41.070Z,41.17
2022-11-29T23:16:11.558Z,40.53
2022-11-29T23:18:40.054Z,40.94
2022-11-29T23:21:10.469Z,40.73
2022-11-29T23:23:38.446Z,40.82
2022-11-29T23:26:08.179Z,40.55
2022-11-29T23:28:36.171Z,40.84
2022-11-29T23:31:03.662Z,40.42
2022-11-29T23:33:31.061Z,40.62
2022-11-29T23:36:05.029Z,40.62
2022-11-29T23:38:33.551Z,40.81
2022-11-29T23:41:01.192Z,40.79
2022-11-29T23:43:30.269Z,40.70
2022-11-29T23:45:58.322Z,40.75
2022-11-29T23:48:26.186Z,40.55
2022-11-29T23:50:53.912Z,40.45
2022-11-29T23:53:21.471Z,40.15
2022-11-29T23:56:00.771Z,40.28
2022-11-29T23:58:29.745Z,40.65
